| time (UTC) | temp F | wind direction | speed knots | gust knots | rain 1hr in | rain 24hr in | rain mn in | humidity % | barometer mb |
| 20260504050225 | 65 | 0 | 0.0 | 0.0 | 0.00 | 0.00 | 0.00 | 27 | 994.6 |
| 20260504045224 | 66 | 0 | 0.0 | 0.0 | 0.00 | 0.00 | 0.00 | 22 | 994.7 |
| 20260504044224 | 65 | 0 | 0.0 | 0.0 | 0.00 | 0.00 | 0.00 | 24 | 994.9 |
| 20260504043225 | 64 | 0 | 0.0 | 0.0 | 0.00 | 0.00 | 0.00 | 23 | 994.8 |
| 20260504042124 | 64 | 0 | 0.0 | 0.0 | 0.00 | 0.00 | 0.00 | 23 | 994.9 |
| 20260504041124 | 64 | 0 | 0.0 | 0.0 | 0.00 | 0.00 | 0.00 | 24 | 995.0 |
| 20260504040124 | 64 | 0 | 0.0 | 0.0 | 0.00 | 0.00 | 0.00 | 26 | 994.9 |
| 20260504035124 | 63 | 0 | 0.0 | 0.0 | 0.00 | 0.00 | 0.00 | 27 | 994.9 |
| 20260504034024 | 63 | 0 | 0.0 | 0.0 | 0.00 | 0.00 | 0.00 | 26 | 995.0 |
| 20260504033025 | 62 | 0 | 0.0 | 0.0 | 0.00 | 0.00 | 0.00 | 27 | 995.0 |
| 20260504032025 | 62 | 0 | 0.0 | 0.0 | 0.00 | 0.00 | 0.00 | 27 | 994.9 |
| 20260504031025 | 62 | 0 | 0.0 | 0.0 | 0.00 | 0.00 | 0.00 | 24 | 995.0 |
| 20260504030040 | 60 | 0 | 0.0 | 0.0 | 0.00 | 0.00 | 0.00 | 26 | 995.0 |
| 20260504024925 | 61 | 0 | 0.0 | 0.0 | 0.00 | 0.00 | 0.00 | 27 | 995.0 |
| 20260504023925 | 61 | 0 | 0.0 | 0.0 | 0.00 | 0.00 | 0.00 | 26 | 994.9 |
| 20260504022824 | 60 | 0 | 0.0 | 0.0 | 0.00 | 0.00 | 0.00 | 29 | 994.8 |
| 20260504021724 | 60 | 0 | 0.0 | 0.0 | 0.00 | 0.00 | 0.00 | 28 | 994.7 |
| 20260504020724 | 59 | 0 | 0.0 | 0.0 | 0.00 | 0.00 | 0.00 | 30 | 994.7 |
| 20260504015625 | 58 | 0 | 0.0 | 0.0 | 0.00 | 0.00 | 0.00 | 30 | 994.6 |
| 20260504014625 | 57 | 0 | 0.0 | 0.0 | 0.00 | 0.00 | 0.00 | 33 | 994.7 |
| 20260504013624 | 56 | 0 | 0.0 | 0.0 | 0.00 | 0.00 | 0.00 | 34 | 994.6 |
| 20260504012525 | 55 | 0 | 0.0 | 0.0 | 0.00 | 0.00 | 0.00 | 35 | 994.6 |
| 20260504011425 | 54 | 0 | 0.0 | 0.0 | 0.00 | 0.00 | 0.00 | 38 | 994.5 |
| 20260504010439 | 51 | 0 | 0.0 | 0.0 | 0.00 | 0.00 | 0.00 | 41 | 994.3 |
| 20260504005324 | 51 | 0 | 0.0 | 0.0 | 0.00 | 0.00 | 0.00 | 42 | 994.3 |
| 20260504004325 | 50 | 0 | 0.0 | 0.0 | 0.00 | 0.00 | 0.00 | 44 | 994.1 |
| 20260504003325 | 49 | 0 | 0.0 | 0.0 | 0.00 | 0.00 | 0.00 | 46 | 994.0 |
| 20260504002324 | 48 | 0 | 0.0 | 0.0 | 0.00 | 0.00 | 0.00 | 48 | 994.0 |
| 20260504001224 | 47 | 0 | 0.0 | 0.0 | 0.00 | 0.00 | 0.00 | 51 | 994.0 |
| 20260504000226 | 47 | 0 | 0.0 | 0.0 | 0.00 | 0.00 | 0.00 | 50 | 993.9 |
| 20260503235124 | 46 | 0 | 0.0 | 0.0 | 0.00 | 0.00 | 0.00 | 52 | 993.8 |
| 20260503234124 | 46 | 0 | 0.0 | 0.0 | 0.00 | 0.00 | 0.00 | 55 | 993.8 |
| 20260503233024 | 45 | 0 | 0.0 | 0.0 | 0.00 | 0.00 | 0.00 | 55 | 993.7 |
| 20260503232024 | 45 | 0 | 0.0 | 0.0 | 0.00 | 0.00 | 0.00 | 55 | 993.6 |
| 20260503231024 | 45 | 0 | 0.0 | 0.0 | 0.00 | 0.00 | 0.00 | 55 | 993.6 |
| 20260503230025 | 45 | 0 | 0.0 | 0.0 | 0.00 | 0.00 | 0.00 | 56 | 993.5 |
| 20260503225025 | 45 | 0 | 0.0 | 0.0 | 0.00 | 0.00 | 0.00 | 57 | 993.4 |
| 20260503224024 | 45 | 0 | 0.0 | 0.0 | 0.00 | 0.00 | 0.00 | 57 | 993.4 |
| 20260503223024 | 45 | 0 | 0.0 | 0.0 | 0.00 | 0.00 | 0.00 | 56 | 993.3 |
| 20260503222023 | 45 | 0 | 0.0 | 0.0 | 0.00 | 0.00 | 0.00 | 57 | 993.3 |
| 20260503221023 | 45 | 0 | 0.0 | 0.0 | 0.00 | 0.00 | 0.00 | 57 | 993.2 |
| 20260503215923 | 45 | 0 | 0.0 | 0.0 | 0.00 | 0.00 | 0.00 | 56 | 993.3 |
| 20260503214923 | 46 | 0 | 0.0 | 0.0 | 0.00 | 0.00 | 0.00 | 55 | 993.1 |
| 20260503213923 | 46 | 0 | 0.0 | 0.0 | 0.00 | 0.00 | 0.00 | 54 | 993.1 |
| 20260503212823 | 46 | 0 | 0.0 | 0.0 | 0.00 | 0.00 | 0.00 | 54 | 993.1 |
| 20260503211823 | 46 | 0 | 0.0 | 0.0 | 0.00 | 0.00 | 0.00 | 54 | 993.1 |
| 20260503210823 | 46 | 0 | 0.0 | 0.0 | 0.00 | 0.00 | 0.00 | 54 | 993.0 |
| 20260503205723 | 46 | 0 | 0.0 | 0.0 | 0.00 | 0.00 | 0.00 | 54 | 992.8 |
| 20260503204722 | 45 | 0 | 0.0 | 0.0 | 0.00 | 0.00 | 0.00 | 54 | 992.7 |
| 20260503203722 | 46 | 0 | 0.0 | 0.0 | 0.00 | 0.00 | 0.00 | 53 | 992.6 |
| 20260503202622 | 46 | 0 | 0.0 | 0.0 | 0.00 | 0.00 | 0.00 | 52 | 992.5 |
| 20260503201623 | 47 | 0 | 0.0 | 0.0 | 0.00 | 0.00 | 0.00 | 51 | 992.4 |
| 20260503200522 | 47 | 0 | 0.0 | 0.0 | 0.00 | 0.00 | 0.00 | 51 | 992.3 |
| 20260503195522 | 47 | 0 | 0.0 | 0.0 | 0.00 | 0.00 | 0.00 | 50 | 992.3 |
| 20260503194523 | 47 | 0 | 0.0 | 0.0 | 0.00 | 0.00 | 0.00 | 50 | 992.3 |
| 20260503193422 | 48 | 0 | 0.0 | 0.0 | 0.00 | 0.00 | 0.00 | 50 | 992.2 |
| 20260503192423 | 49 | 0 | 0.0 | 0.0 | 0.00 | 0.00 | 0.00 | 49 | 992.2 |
| 20260503191422 | 49 | 0 | 0.0 | 0.0 | 0.00 | 0.00 | 0.00 | 50 | 992.3 |
| 20260503190423 | 49 | 0 | 0.0 | 0.0 | 0.00 | 0.00 | 0.00 | 49 | 992.3 |
| 20260503185438 | 49 | 0 | 0.0 | 0.0 | 0.00 | 0.00 | 0.00 | 49 | 992.1 |
| 20260503184323 | 50 | 0 | 0.0 | 0.0 | 0.00 | 0.00 | 0.00 | 49 | 992.1 |
| 20260503183322 | 50 | 0 | 0.0 | 0.0 | 0.00 | 0.00 | 0.00 | 48 | 991.9 |
| 20260503182222 | 50 | 0 | 0.0 | 0.0 | 0.00 | 0.00 | 0.00 | 49 | 991.9 |
| 20260503181222 | 50 | 0 | 0.0 | 0.0 | 0.00 | 0.00 | 0.00 | 49 | 991.9 |
| 20260503180222 | 50 | 0 | 0.0 | 0.0 | 0.00 | 0.00 | 0.00 | 49 | 991.8 |
| 20260503175222 | 51 | 0 | 0.0 | 0.0 | 0.00 | 0.00 | 0.00 | 49 | 991.6 |
| 20260503174123 | 51 | 0 | 0.0 | 0.0 | 0.00 | 0.00 | 0.00 | 49 | 991.5 |
| 20260503173122 | 51 | 0 | 0.0 | 0.0 | 0.00 | 0.00 | 0.00 | 50 | 991.4 |
| 20260503172122 | 51 | 0 | 0.0 | 0.0 | 0.00 | 0.00 | 0.00 | 50 | 991.4 |
| 20260503171022 | 52 | 0 | 0.0 | 0.0 | 0.00 | 0.00 | 0.00 | 50 | 991.4 |
| 20260503150622 | 56 | 0 | 0.0 | 0.0 | 0.00 | 0.00 | 0.00 | 45 | 990.3 |
| 20260503131322 | 62 | 0 | 0.0 | 0.0 | 0.00 | 0.00 | 0.00 | 31 | 989.2 |
| 20260503130322 | 62 | 0 | 0.0 | 0.0 | 0.00 | 0.00 | 0.00 | 30 | 989.1 |
| 20260503120222 | 64 | 0 | 0.0 | 0.0 | 0.00 | 0.00 | 0.00 | 28 | 989.3 |
| 20260503090423 | 65 | 0 | 0.0 | 0.0 | 0.00 | 0.00 | 0.00 | 25 | 990.6 |
| 20260503081222 | 68 | 0 | 0.0 | 0.0 | 0.00 | 0.00 | 0.00 | 21 | 991.3 |
| 20260503080122 | 66 | 0 | 0.0 | 0.0 | 0.00 | 0.00 | 0.00 | 24 | 991.4 |
| 20260503072922 | 66 | 0 | 0.0 | 0.0 | 0.00 | 0.00 | 0.00 | 24 | 991.7 |
| 20260503071922 | 69 | 0 | 0.0 | 0.0 | 0.00 | 0.00 | 0.00 | 21 | 991.5 |
| 20260503070922 | 68 | 0 | 0.0 | 0.0 | 0.00 | 0.00 | 0.00 | 23 | 991.7 |
| 20260503054522 | 66 | 0 | 0.0 | 0.0 | 0.00 | 0.00 | 0.00 | 22 | 992.4 |
| 20260503053522 | 65 | 0 | 0.0 | 0.0 | 0.00 | 0.00 | 0.00 | 21 | 992.6 |